Time;durP1;ratioP1;P1;durP2;ratioP2;P2;SDS_P1;SDS_P2;PMS_P1;PMS_P2;Temp;Humidity;BMP_temperature;BMP_pressure;BME280_temperature;BME280_humidity;BME280_pressure;Samples;Min_cycle;Max_cycle;Signal;HPM_P1;HPM_P2
2023/11/04 00:00:31;;;;;;;0.30;0.30;;;;;;;;;;5063377;28;20513;-75
2023/11/04 00:03:20;;;;;;;2.05;0.30;;;;;;;;;;5065506;28;20044;-73
2023/11/04 00:05:53;;;;;;;1.65;0.25;;;;;;;;;;5065617;28;20059;-74
2023/11/04 00:08:23;;;;;;;0.38;0.38;;;;;;;;;;5065357;28;20044;-76
2023/11/04 00:10:56;;;;;;;3.35;0.60;;;;;;;;;;5065215;28;20044;-72
2023/11/04 00:13:26;;;;;;;0.40;0.40;;;;;;;;;;5065622;28;20399;-76
2023/11/04 00:15:57;;;;;;;0.60;0.40;;;;;;;;;;5063965;28;20538;-74
2023/11/04 00:18:32;;;;;;;0.20;0.20;;;;;;;;;;5063079;28;20061;-75
2023/11/04 00:21:07;;;;;;;0.75;0.25;;;;;;;;;;5064654;28;20786;-76
2023/11/04 00:23:38;;;;;;;0.73;0.30;;;;;;;;;;5063489;28;20067;-76
2023/11/04 00:26:08;;;;;;;2.40;0.47;;;;;;;;;;5063788;28;20052;-72
2023/11/04 00:28:40;;;;;;;6.25;0.40;;;;;;;;;;5061886;28;20044;-74
2023/11/04 00:31:11;;;;;;;1.90;0.40;;;;;;;;;;5064788;28;20059;-74
2023/11/04 00:33:42;;;;;;;0.28;0.22;;;;;;;;;;5063903;28;20044;-75
2023/11/04 00:36:13;;;;;;;0.40;0.40;;;;;;;;;;5063466;28;20626;-74
2023/11/04 00:38:44;;;;;;;0.63;0.50;;;;;;;;;;5063532;28;20056;-75
2023/11/04 00:41:14;;;;;;;0.45;0.20;;;;;;;;;;5062305;28;20610;-73
2023/11/04 00:43:44;;;;;;;0.38;0.30;;;;;;;;;;5063002;28;20060;-74
2023/11/04 00:46:14;;;;;;;0.65;0.30;;;;;;;;;;5064195;28;20495;-76
2023/11/04 00:48:46;;;;;;;0.50;0.40;;;;;;;;;;5064162;28;20461;-74
2023/11/04 00:51:22;;;;;;;5.45;0.60;;;;;;;;;;5063079;28;20056;-74
2023/11/04 00:53:52;;;;;;;0.30;0.25;;;;;;;;;;5062405;28;20057;-75
2023/11/04 00:56:23;;;;;;;0.40;0.28;;;;;;;;;;5062676;28;20060;-75
2023/11/04 00:58:53;;;;;;;0.55;0.40;;;;;;;;;;5064191;28;20490;-76
2023/11/04 01:01:25;;;;;;;0.20;0.20;;;;;;;;;;5065065;28;20052;-74
2023/11/04 01:03:56;;;;;;;0.38;0.38;;;;;;;;;;5063174;28;20056;-73
2023/11/04 01:06:26;;;;;;;0.25;0.25;;;;;;;;;;5063839;28;20044;-74
2023/11/04 01:08:58;;;;;;;0.68;0.50;;;;;;;;;;5063788;28;20059;-75
2023/11/04 01:11:28;;;;;;;0.38;0.38;;;;;;;;;;5064216;28;20051;-75
2023/11/04 01:13:58;;;;;;;0.50;0.50;;;;;;;;;;5063791;28;20047;-76
2023/11/04 01:16:28;;;;;;;1.70;0.63;;;;;;;;;;5062555;28;20495;-74
2023/11/04 01:18:58;;;;;;;0.82;0.60;;;;;;;;;;5063402;28;20051;-72
2023/11/04 01:21:29;;;;;;;0.88;0.68;;;;;;;;;;5062414;28;20060;-74
2023/11/04 01:24:02;;;;;;;3.05;0.80;;;;;;;;;;5063313;28;20044;-74
2023/11/04 01:26:32;;;;;;;1.25;0.63;;;;;;;;;;5063439;28;20041;-72
2023/11/04 01:29:02;;;;;;;3.15;0.88;;;;;;;;;;5063328;28;21218;-71
2023/11/04 01:31:33;;;;;;;0.98;0.75;;;;;;;;;;5062284;28;20048;-73
2023/11/04 01:34:04;;;;;;;7.13;1.15;;;;;;;;;;5063348;28;20526;-75
2023/11/04 01:36:35;;;;;;;0.50;0.50;;;;;;;;;;5063571;28;20384;-75
2023/11/04 01:39:07;;;;;;;0.65;0.45;;;;;;;;;;5063420;28;20055;-74
2023/11/04 01:41:37;;;;;;;2.55;0.47;;;;;;;;;;5063794;28;20053;-74
2023/11/04 01:44:07;;;;;;;0.45;0.20;;;;;;;;;;5064000;28;20051;-74
2023/11/04 01:46:41;;;;;;;0.32;0.32;;;;;;;;;;5063100;28;20048;-75
2023/11/04 01:49:13;;;;;;;0.35;0.22;;;;;;;;;;5063014;28;20426;-77
2023/11/04 01:51:44;;;;;;;0.32;0.32;;;;;;;;;;5064731;28;20051;-75
2023/11/04 01:54:15;;;;;;;2.38;0.50;;;;;;;;;;5062622;28;20530;-74
2023/11/04 01:56:47;;;;;;;0.32;0.30;;;;;;;;;;5061780;28;20610;-72
2023/11/04 01:59:19;;;;;;;0.75;0.47;;;;;;;;;;5061885;28;20063;-72
2023/11/04 02:01:49;;;;;;;0.50;0.50;;;;;;;;;;5029960;28;20839;-73
2023/11/04 02:04:21;;;;;;;0.30;0.30;;;;;;;;;;5063237;28;20064;-72
2023/11/04 02:06:52;;;;;;;0.38;0.28;;;;;;;;;;5062225;28;20048;-76
2023/11/04 02:09:22;;;;;;;0.82;0.30;;;;;;;;;;5063285;28;20033;-74
2023/11/04 02:11:53;;;;;;;0.43;0.30;;;;;;;;;;5062618;28;20400;-75
2023/11/04 02:14:24;;;;;;;0.17;0.17;;;;;;;;;;5062969;28;20059;-74
2023/11/04 02:16:55;;;;;;;0.75;0.40;;;;;;;;;;5062790;28;20076;-72
2023/11/04 02:19:26;;;;;;;2.05;0.40;;;;;;;;;;5061695;28;20048;-72
2023/11/04 02:21:57;;;;;;;0.40;0.40;;;;;;;;;;5061483;28;20059;-74
2023/11/04 02:24:27;;;;;;;0.38;0.38;;;;;;;;;;5062642;28;20419;-75
2023/11/04 02:26:57;;;;;;;0.77;0.50;;;;;;;;;;5061546;28;20061;-73
2023/11/04 02:29:28;;;;;;;0.30;0.30;;;;;;;;;;5063501;28;20387;-73
2023/11/04 02:31:59;;;;;;;2.15;0.30;;;;;;;;;;5062350;28;20047;-75
2023/11/04 02:34:30;;;;;;;0.35;0.35;;;;;;;;;;5062391;28;20411;-74
2023/11/04 02:37:00;;;;;;;0.40;0.40;;;;;;;;;;5062862;28;20110;-71
2023/11/04 02:39:30;;;;;;;0.63;0.40;;;;;;;;;;5062820;28;20052;-74
2023/11/04 02:42:00;;;;;;;0.45;0.40;;;;;;;;;;5062236;28;20529;-74
2023/11/04 02:44:31;;;;;;;2.40;0.60;;;;;;;;;;5062168;28;20052;-72
2023/11/04 02:47:05;;;;;;;0.47;0.40;;;;;;;;;;5062925;28;20049;-72
2023/11/04 02:49:38;;;;;;;0.30;0.30;;;;;;;;;;5062327;28;20526;-75
2023/11/04 02:52:07;;;;;;;0.43;0.40;;;;;;;;;;5061178;28;20044;-75
2023/11/04 02:54:39;;;;;;;2.05;0.32;;;;;;;;;;5062752;28;20052;-73
2023/11/04 02:57:11;;;;;;;0.20;0.20;;;;;;;;;;5061355;28;20511;-74
2023/11/04 02:59:42;;;;;;;0.40;0.30;;;;;;;;;;5062394;28;20052;-76
2023/11/04 03:02:14;;;;;;;0.85;0.50;;;;;;;;;;5061918;28;20052;-75
2023/11/04 03:04:53;;;;;;;0.45;0.45;;;;;;;;;;5062113;28;20495;-72
2023/11/04 03:07:31;;;;;;;0.50;0.30;;;;;;;;;;5061660;28;20067;-77
2023/11/04 03:10:04;;;;;;;0.40;0.40;;;;;;;;;;5062378;28;20048;-74
2023/11/04 03:12:34;;;;;;;0.55;0.50;;;;;;;;;;5061038;28;20074;-76
2023/11/04 03:15:05;;;;;;;1.73;0.40;;;;;;;;;;5062284;28;20072;-74
2023/11/04 03:17:36;;;;;;;0.30;0.30;;;;;;;;;;5061415;28;20503;-75
2023/11/04 03:20:08;;;;;;;0.60;0.50;;;;;;;;;;5060294;28;20059;-72
2023/11/04 03:22:38;;;;;;;0.77;0.20;;;;;;;;;;5062296;28;20079;-74
2023/11/04 03:25:09;;;;;;;0.52;0.30;;;;;;;;;;5062431;28;20415;-74
2023/11/04 03:27:41;;;;;;;1.30;0.38;;;;;;;;;;5062459;28;20495;-74
2023/11/04 03:30:12;;;;;;;0.55;0.50;;;;;;;;;;5061941;28;20344;-76
2023/11/04 03:32:43;;;;;;;0.30;0.30;;;;;;;;;;5062468;28;20051;-74
2023/11/04 03:35:13;;;;;;;0.63;0.50;;;;;;;;;;5061660;28;20590;-73
2023/11/04 03:37:44;;;;;;;0.40;0.40;;;;;;;;;;5060908;28;20056;-74
2023/11/04 03:40:15;;;;;;;0.45;0.45;;;;;;;;;;5061072;28;20052;-73
2023/11/04 03:42:46;;;;;;;3.15;0.32;;;;;;;;;;5061450;28;20063;-74
2023/11/04 03:45:16;;;;;;;0.63;0.50;;;;;;;;;;5062060;28;20067;-74
2023/11/04 03:47:47;;;;;;;0.15;0.15;;;;;;;;;;5060700;28;20053;-75
2023/11/04 03:50:19;;;;;;;0.57;0.40;;;;;;;;;;5061321;28;20400;-73
2023/11/04 03:52:49;;;;;;;1.58;0.40;;;;;;;;;;5061864;28;20044;-73
2023/11/04 03:55:19;;;;;;;1.83;0.38;;;;;;;;;;5061480;28;20056;-73
2023/11/04 03:57:50;;;;;;;0.68;0.25;;;;;;;;;;5062175;28;20051;-76
2023/11/04 04:00:20;;;;;;;3.50;0.50;;;;;;;;;;5061320;28;20048;-72
2023/11/04 04:02:51;;;;;;;0.40;0.40;;;;;;;;;;5061754;28;20487;-74
2023/11/04 04:05:21;;;;;;;0.75;0.50;;;;;;;;;;5060392;28;20051;-76
2023/11/04 04:07:51;;;;;;;1.50;0.50;;;;;;;;;;5061086;28;20071;-74
2023/11/04 04:10:21;;;;;;;0.30;0.30;;;;;;;;;;5060853;28;20037;-72
2023/11/04 04:12:53;;;;;;;1.20;0.43;;;;;;;;;;5061334;28;20057;-73
2023/11/04 04:15:24;;;;;;;0.40;0.40;;;;;;;;;;5061417;28;20792;-74
2023/11/04 04:17:55;;;;;;;0.47;0.47;;;;;;;;;;5061245;28;20057;-73
2023/11/04 04:20:27;;;;;;;0.30;0.30;;;;;;;;;;5061188;28;20064;-73
2023/11/04 04:22:58;;;;;;;1.83;0.90;;;;;;;;;;5060929;28;20419;-74
2023/11/04 04:25:28;;;;;;;0.80;0.40;;;;;;;;;;5061657;28;20063;-74
2023/11/04 04:27:59;;;;;;;1.02;0.50;;;;;;;;;;5059928;28;20052;-74
2023/11/04 04:30:29;;;;;;;2.42;0.60;;;;;;;;;;5062110;28;20044;-73
2023/11/04 04:32:59;;;;;;;0.82;0.60;;;;;;;;;;5064596;28;20119;-73
2023/11/04 04:35:29;;;;;;;0.60;0.60;;;;;;;;;;5064869;28;20060;-74
2023/11/04 04:38:00;;;;;;;1.23;0.55;;;;;;;;;;5064805;28;20071;-73
2023/11/04 04:40:31;;;;;;;0.70;0.45;;;;;;;;;;5064394;28;20418;-73
2023/11/04 04:43:06;;;;;;;1.05;0.40;;;;;;;;;;5064085;28;20052;-77
2023/11/04 04:45:36;;;;;;;1.00;0.55;;;;;;;;;;5064279;28;20053;-73
2023/11/04 04:48:07;;;;;;;1.33;0.40;;;;;;;;;;5064434;28;20446;-73
2023/11/04 04:50:37;;;;;;;0.63;0.50;;;;;;;;;;5064921;28;20419;-73
2023/11/04 04:53:08;;;;;;;0.20;0.20;;;;;;;;;;5064908;28;20056;-75
2023/11/04 04:55:37;;;;;;;;;;;;;;;;;;5065194;28;20495;-72
2023/11/04 04:58:08;;;;;;;0.82;0.63;;;;;;;;;;5064513;28;19931;-75
2023/11/04 05:00:41;;;;;;;2.08;0.47;;;;;;;;;;5063685;28;20052;-75
2023/11/04 05:03:11;;;;;;;0.40;0.40;;;;;;;;;;5063700;28;20659;-75
2023/11/04 05:05:42;;;;;;;0.47;0.43;;;;;;;;;;5064030;28;20052;-74
2023/11/04 05:08:12;;;;;;;0.52;0.52;;;;;;;;;;5063998;28;20044;-75
2023/11/04 05:10:43;;;;;;;0.40;0.40;;;;;;;;;;5063890;28;20041;-74
2023/11/04 05:13:15;;;;;;;0.88;0.57;;;;;;;;;;5063450;28;20415;-73
2023/11/04 05:15:45;;;;;;;0.65;0.30;;;;;;;;;;5063716;28;20063;-73
2023/11/04 05:18:15;;;;;;;0.65;0.45;;;;;;;;;;5064054;28;20051;-75
2023/11/04 05:20:45;;;;;;;0.50;0.40;;;;;;;;;;5063496;28;20060;-74
2023/11/04 05:23:16;;;;;;;0.40;0.40;;;;;;;;;;5063506;28;20447;-71
2023/11/04 05:25:47;;;;;;;0.82;0.43;;;;;;;;;;5064103;28;20411;-76
2023/11/04 05:28:17;;;;;;;2.17;0.30;;;;;;;;;;5064183;28;20048;-76
2023/11/04 05:30:47;;;;;;;0.35;0.35;;;;;;;;;;5064242;28;20510;-75
2023/11/04 05:33:17;;;;;;;1.38;0.60;;;;;;;;;;5062010;28;20060;-74
2023/11/04 05:35:48;;;;;;;0.63;0.45;;;;;;;;;;5062335;28;20052;-76
2023/11/04 05:38:19;;;;;;;1.35;0.70;;;;;;;;;;5062975;28;20040;-74
2023/11/04 05:40:50;;;;;;;0.82;0.32;;;;;;;;;;5063808;28;20056;-78
2023/11/04 05:43:20;;;;;;;0.75;0.43;;;;;;;;;;5063514;28;20052;-74
2023/11/04 05:45:52;;;;;;;0.30;0.30;;;;;;;;;;5063548;28;20422;-74
2023/11/04 05:48:23;;;;;;;0.55;0.30;;;;;;;;;;5062968;28;20499;-74
2023/11/04 05:50:54;;;;;;;0.30;0.30;;;;;;;;;;5063090;28;20542;-74
2023/11/04 05:53:24;;;;;;;0.22;0.22;;;;;;;;;;5063009;28;20045;-75
2023/11/04 05:55:54;;;;;;;1.25;0.32;;;;;;;;;;5063773;28;20519;-71
2023/11/04 05:58:25;;;;;;;0.50;0.38;;;;;;;;;;5062717;28;20051;-76
2023/11/04 06:00:55;;;;;;;2.45;0.50;;;;;;;;;;5062935;28;20594;-74
2023/11/04 06:03:25;;;;;;;0.15;0.15;;;;;;;;;;5063433;28;20408;-75
2023/11/04 06:05:56;;;;;;;0.40;0.30;;;;;;;;;;5063388;28;20049;-73
2023/11/04 06:08:27;;;;;;;0.40;0.40;;;;;;;;;;5062655;28;20442;-73
2023/11/04 06:10:58;;;;;;;2.17;0.77;;;;;;;;;;5062515;28;20049;-72
2023/11/04 06:13:28;;;;;;;0.40;0.40;;;;;;;;;;5061834;28;20392;-74
2023/11/04 06:15:58;;;;;;;0.35;0.35;;;;;;;;;;5062649;28;20677;-73
2023/11/04 06:18:28;;;;;;;0.30;0.30;;;;;;;;;;5062521;28;20048;-73
2023/11/04 06:20:59;;;;;;;0.60;0.40;;;;;;;;;;5062261;28;20056;-77
2023/11/04 06:23:29;;;;;;;0.25;0.25;;;;;;;;;;5060252;28;20059;-73
2023/11/04 06:26:00;;;;;;;0.40;0.40;;;;;;;;;;5062364;28;20503;-73
2023/11/04 06:28:30;;;;;;;0.40;0.40;;;;;;;;;;5061490;28;20396;-73
2023/11/04 06:31:09;;;;;;;0.68;0.30;;;;;;;;;;5062774;28;20414;-75
2023/11/04 06:33:41;;;;;;;0.45;0.45;;;;;;;;;;5062275;28;20055;-74
2023/11/04 06:36:12;;;;;;;0.45;0.30;;;;;;;;;;5062752;28;20052;-75
2023/11/04 06:38:42;;;;;;;0.40;0.32;;;;;;;;;;5060715;28;20064;-71
2023/11/04 06:41:16;;;;;;;1.08;0.30;;;;;;;;;;5062404;28;20056;-74
2023/11/04 06:43:48;;;;;;;1.13;0.40;;;;;;;;;;5062357;28;20052;-74
2023/11/04 06:46:19;;;;;;;1.83;0.50;;;;;;;;;;5062405;28;20692;-74
2023/11/04 06:48:49;;;;;;;0.32;0.32;;;;;;;;;;5062492;28;20047;-74
2023/11/04 06:51:20;;;;;;;0.50;0.40;;;;;;;;;;5062431;28;20056;-76
2023/11/04 06:53:51;;;;;;;0.22;0.22;;;;;;;;;;5062276;28;20048;-76
2023/11/04 06:56:25;;;;;;;0.30;0.30;;;;;;;;;;5061591;28;20036;-74
2023/11/04 06:58:55;;;;;;;0.22;0.22;;;;;;;;;;5061949;28;20048;-75
2023/11/04 07:01:26;;;;;;;;;;;;;;;;;;5061335;28;20059;-75
2023/11/04 07:03:57;;;;;;;0.30;0.25;;;;;;;;;;5062202;28;19924;-75
2023/11/04 07:06:27;;;;;;;0.25;0.25;;;;;;;;;;5062039;28;20052;-74
2023/11/04 07:08:59;;;;;;;0.60;0.40;;;;;;;;;;5062477;28;20114;-74
2023/11/04 07:11:29;;;;;;;1.85;0.43;;;;;;;;;;5062302;28;20048;-74
2023/11/04 07:13:59;;;;;;;;;;;;;;;;;;5062179;28;20068;-77
2023/11/04 07:16:29;;;;;;;0.30;0.30;;;;;;;;;;5061787;28;20375;-75
2023/11/04 07:18:59;;;;;;;0.50;0.40;;;;;;;;;;5062031;28;20521;-75
2023/11/04 07:21:30;;;;;;;0.40;0.30;;;;;;;;;;5061875;28;20053;-74
2023/11/04 07:24:00;;;;;;;0.32;0.32;;;;;;;;;;5060471;28;20047;-72
2023/11/04 07:26:30;;;;;;;0.30;0.30;;;;;;;;;;5061459;28;20055;-73
2023/11/04 07:29:03;;;;;;;0.40;0.30;;;;;;;;;;5061606;28;20060;-76
2023/11/04 07:31:35;;;;;;;0.60;0.50;;;;;;;;;;5061821;28;20076;-72
2023/11/04 07:34:06;;;;;;;0.50;0.32;;;;;;;;;;5060735;28;20063;-74
2023/11/04 07:36:36;;;;;;;0.40;0.40;;;;;;;;;;5062382;28;20593;-74
2023/11/04 07:39:07;;;;;;;0.30;0.30;;;;;;;;;;5061869;28;20419;-73
2023/11/04 07:41:43;;;;;;;0.73;0.40;;;;;;;;;;5061483;28;20067;-74
2023/11/04 07:44:14;;;;;;;0.73;0.40;;;;;;;;;;5061089;28;20491;-75
2023/11/04 07:46:45;;;;;;;1.30;0.57;;;;;;;;;;5060163;28;20048;-72
2023/11/04 07:49:16;;;;;;;0.40;0.40;;;;;;;;;;5061236;28;20514;-73
2023/11/04 07:51:46;;;;;;;0.52;0.30;;;;;;;;;;5062375;28;20040;-74
2023/11/04 07:54:16;;;;;;;1.13;0.60;;;;;;;;;;5062240;28;20044;-76
2023/11/04 07:56:46;;;;;;;;;;;;;;;;;;5062056;28;20513;-74
2023/11/04 07:59:17;;;;;;;0.40;0.30;;;;;;;;;;5061838;28;19924;-75
2023/11/04 08:01:47;;;;;;;0.20;0.20;;;;;;;;;;5061734;28;20052;-73
2023/11/04 08:04:17;;;;;;;0.32;0.32;;;;;;;;;;5061602;28;20052;-71
2023/11/04 08:06:47;;;;;;;1.05;0.20;;;;;;;;;;5063123;28;20407;-76
2023/11/04 08:09:19;;;;;;;4.20;0.40;;;;;;;;;;5064480;28;20052;-73
2023/11/04 08:11:49;;;;;;;0.60;0.40;;;;;;;;;;5065219;28;20049;-73
2023/11/04 08:14:20;;;;;;;1.38;0.30;;;;;;;;;;5063776;28;20045;-74
2023/11/04 08:16:50;;;;;;;0.20;0.20;;;;;;;;;;5065150;28;20052;-74
2023/11/04 08:19:21;;;;;;;0.20;0.20;;;;;;;;;;5064945;28;20049;-73
2023/11/04 08:21:52;;;;;;;0.32;0.22;;;;;;;;;;5065494;28;20063;-74
2023/11/04 08:24:23;;;;;;;0.35;0.35;;;;;;;;;;5065174;28;20413;-70
2023/11/04 08:26:54;;;;;;;0.38;0.35;;;;;;;;;;5064939;28;20491;-73
2023/11/04 08:29:26;;;;;;;0.17;0.17;;;;;;;;;;5065300;28;20040;-74
2023/11/04 08:31:56;;;;;;;2.05;0.30;;;;;;;;;;5064383;28;20044;-75
2023/11/04 08:34:27;;;;;;;0.63;0.40;;;;;;;;;;5065283;28;20055;-76
2023/11/04 08:36:57;;;;;;;0.35;0.30;;;;;;;;;;5065531;28;20044;-74
2023/11/04 08:39:28;;;;;;;0.10;0.10;;;;;;;;;;5064305;28;20052;-74
2023/11/04 08:41:59;;;;;;;0.30;0.30;;;;;;;;;;5064304;28;20048;-73
2023/11/04 08:44:29;;;;;;;0.10;0.10;;;;;;;;;;5064591;28;20059;-74
2023/11/04 08:47:01;;;;;;;0.15;0.15;;;;;;;;;;5063932;28;20064;-71
2023/11/04 08:49:32;;;;;;;0.20;0.20;;;;;;;;;;5064321;28;20045;-73
2023/11/04 08:52:04;;;;;;;0.22;0.22;;;;;;;;;;5063628;28;20056;-71
2023/11/04 08:54:34;;;;;;;0.40;0.40;;;;;;;;;;5064236;28;20045;-75
2023/11/04 08:57:04;;;;;;;0.73;0.30;;;;;;;;;;5064377;28;20099;-74
2023/11/04 08:59:36;;;;;;;0.20;0.10;;;;;;;;;;5064222;28;20079;-85
2023/11/04 09:02:07;;;;;;;0.32;0.30;;;;;;;;;;5064794;28;20049;-72
2023/11/04 09:04:37;;;;;;;0.22;0.22;;;;;;;;;;5062822;28;20040;-74
2023/11/04 09:07:07;;;;;;;0.40;0.40;;;;;;;;;;5063563;28;20079;-72
2023/11/04 09:09:37;;;;;;;0.65;0.40;;;;;;;;;;5063575;28;20071;-72
2023/11/04 09:12:10;;;;;;;0.30;0.30;;;;;;;;;;5064540;28;20403;-72
2023/11/04 09:14:44;;;;;;;3.17;1.90;;;;;;;;;;5064810;28;20074;-72
2023/11/04 09:17:14;;;;;;;0.20;0.20;;;;;;;;;;5063626;28;20697;-72
2023/11/04 09:19:45;;;;;;;0.40;0.30;;;;;;;;;;5064219;28;20048;-72
2023/11/04 09:22:16;;;;;;;0.47;0.43;;;;;;;;;;5061933;28;20057;-72
2023/11/04 09:24:46;;;;;;;1.70;0.43;;;;;;;;;;5046261;28;20423;-72
2023/11/04 09:27:16;;;;;;;0.35;0.22;;;;;;;;;;5063613;28;20044;-72
2023/11/04 09:29:47;;;;;;;0.52;0.30;;;;;;;;;;5063532;28;20048;-73
2023/11/04 09:32:19;;;;;;;0.40;0.20;;;;;;;;;;5063329;28;20048;-72
2023/11/04 09:34:51;;;;;;;2.00;0.30;;;;;;;;;;5063384;28;20051;-72
2023/11/04 09:37:22;;;;;;;0.75;0.30;;;;;;;;;;5063374;28;20060;-73
2023/11/04 09:39:53;;;;;;;;;;;;;;;;;;5062651;28;20396;-72
2023/11/04 09:42:27;;;;;;;0.38;0.20;;;;;;;;;;5063301;28;19924;-72
2023/11/04 09:44:59;;;;;;;0.55;0.28;;;;;;;;;;5064514;28;20067;-72
2023/11/04 09:47:31;;;;;;;2.60;0.52;;;;;;;;;;5064521;28;20862;-72
2023/11/04 09:50:01;;;;;;;1.95;0.40;;;;;;;;;;5063641;28;20063;-71
2023/11/04 09:52:35;;;;;;;0.03;0.03;;;;;;;;;;5063321;28;20055;-72
2023/11/04 09:55:07;;;;;;;0.20;0.20;;;;;;;;;;5062883;28;20037;-72
2023/11/04 09:57:37;;;;;;;0.32;0.28;;;;;;;;;;5062576;28;20048;-72
2023/11/04 10:00:10;;;;;;;1.70;0.47;;;;;;;;;;5063492;28;20045;-72
2023/11/04 10:02:41;;;;;;;0.85;0.40;;;;;;;;;;5062621;28;20056;-71
2023/11/04 10:05:12;;;;;;;1.00;0.20;;;;;;;;;;5063360;28;20048;-71
2023/11/04 10:07:42;;;;;;;0.50;0.30;;;;;;;;;;5062425;28;20036;-70
2023/11/04 10:10:12;;;;;;;1.50;0.60;;;;;;;;;;5062501;28;20059;-78
2023/11/04 10:12:57;;;;;;;0.60;0.40;;;;;;;;;;5061536;28;20048;-73
2023/11/04 10:15:28;;;;;;;0.85;0.45;;;;;;;;;;5063521;28;20055;-72
2023/11/04 10:17:58;;;;;;;0.30;0.30;;;;;;;;;;5062470;28;20053;-73
2023/11/04 10:20:28;;;;;;;2.50;0.20;;;;;;;;;;5062951;28;20493;-71
2023/11/04 10:22:58;;;;;;;0.30;0.20;;;;;;;;;;5063043;28;20053;-73
2023/11/04 10:25:31;;;;;;;0.77;0.25;;;;;;;;;;5062933;28;20064;-71
2023/11/04 10:28:01;;;;;;;1.83;0.30;;;;;;;;;;5061868;28;20044;-73
2023/11/04 10:30:31;;;;;;;0.85;0.52;;;;;;;;;;5062412;28;20048;-72
2023/11/04 10:33:07;;;;;;;1.55;0.20;;;;;;;;;;5061806;28;20059;-73
2023/11/04 10:35:39;;;;;;;;;;;;;;;;;;5062517;28;20036;-73
2023/11/04 10:38:14;;;;;;;0.63;0.45;;;;;;;;;;5062297;28;19924;-73
2023/11/04 10:40:45;;;;;;;0.43;0.28;;;;;;;;;;5060589;28;20055;-72
2023/11/04 10:43:20;;;;;;;1.02;0.40;;;;;;;;;;5061296;28;20053;-72
2023/11/04 10:45:51;;;;;;;;;;;;;;;;;;5062640;28;20055;-71
2023/11/04 10:48:54;;;;;;;0.90;0.32;;;;;;;;;;5062136;28;19951;-71
2023/11/04 10:51:34;;;;;;;0.10;0.10;;;;;;;;;;5061021;28;20063;-74
2023/11/04 10:54:22;;;;;;;0.30;0.20;;;;;;;;;;5062218;28;20754;-73
2023/11/04 10:57:03;;;;;;;0.52;0.28;;;;;;;;;;5062214;28;20036;-75
2023/11/04 11:00:13;;;;;;;0.40;0.28;;;;;;;;;;5061945;28;20475;-74
2023/11/04 11:02:45;;;;;;;1.05;0.22;;;;;;;;;;5061136;28;20107;-72
2023/11/04 11:05:22;;;;;;;0.30;0.25;;;;;;;;;;5061700;28;20805;-73
2023/11/04 11:07:54;;;;;;;0.50;0.20;;;;;;;;;;5061700;28;20040;-72
2023/11/04 11:10:34;;;;;;;1.15;0.30;;;;;;;;;;5062302;28;20389;-73
2023/11/04 11:13:30;;;;;;;5.68;0.50;;;;;;;;;;5061629;28;20048;-73
2023/11/04 11:16:01;;;;;;;1.98;1.17;;;;;;;;;;5061488;28;20048;-73
2023/11/04 11:18:31;;;;;;;0.20;0.20;;;;;;;;;;5061907;28;20041;-73
2023/11/04 11:21:11;;;;;;;0.55;0.40;;;;;;;;;;5061938;28;20696;-73
2023/11/04 11:23:42;;;;;;;0.98;0.30;;;;;;;;;;5061565;28;20526;-73
2023/11/04 11:26:12;;;;;;;3.28;0.40;;;;;;;;;;5062026;28;20526;-72
2023/11/04 11:28:43;;;;;;;1.08;0.35;;;;;;;;;;5060224;28;20542;-74
2023/11/04 11:31:13;;;;;;;0.63;0.40;;;;;;;;;;5062308;28;20044;-73
2023/11/04 11:33:44;;;;;;;0.50;0.45;;;;;;;;;;5062256;28;20093;-76
2023/11/04 11:36:14;;;;;;;2.05;0.50;;;;;;;;;;5062130;28;20467;-72
2023/11/04 11:38:45;;;;;;;1.27;0.17;;;;;;;;;;5061620;28;20048;-73
2023/11/04 11:41:16;;;;;;;0.55;0.25;;;;;;;;;;5065463;28;20503;-71
2023/11/04 11:43:48;;;;;;;2.88;0.30;;;;;;;;;;5065406;28;20052;-75
2023/11/04 11:46:18;;;;;;;1.52;0.30;;;;;;;;;;5065735;28;20410;-71
2023/11/04 11:48:50;;;;;;;1.55;0.45;;;;;;;;;;5065229;28;20052;-72
2023/11/04 11:51:20;;;;;;;1.35;0.38;;;;;;;;;;5064670;28;20056;-75
2023/11/04 11:53:52;;;;;;;0.57;0.30;;;;;;;;;;5062749;28;20049;-73
2023/11/04 11:56:22;;;;;;;1.08;0.20;;;;;;;;;;5061437;28;20418;-72
2023/11/04 11:58:52;;;;;;;0.80;0.20;;;;;;;;;;5062851;28;20387;-74
2023/11/04 12:01:22;;;;;;;4.82;0.43;;;;;;;;;;5062616;28;20048;-72
2023/11/04 12:03:53;;;;;;;1.23;0.30;;;;;;;;;;5062343;28;20052;-71
2023/11/04 12:06:27;;;;;;;1.27;0.52;;;;;;;;;;5062652;28;20041;-72
2023/11/04 12:08:58;;;;;;;0.57;0.40;;;;;;;;;;5061897;28;20086;-72
2023/11/04 12:11:29;;;;;;;0.65;0.45;;;;;;;;;;5062538;28;20656;-72
2023/11/04 12:14:00;;;;;;;0.28;0.25;;;;;;;;;;5062981;28;20060;-73
2023/11/04 12:16:33;;;;;;;0.82;0.28;;;;;;;;;;5062116;28;20060;-71
2023/11/04 12:19:05;;;;;;;1.42;0.73;;;;;;;;;;5061981;28;20106;-79
2023/11/04 12:21:37;;;;;;;0.55;0.30;;;;;;;;;;5062033;28;20048;-72
2023/11/04 12:24:08;;;;;;;1.17;0.50;;;;;;;;;;5061836;28;20055;-72
2023/11/04 12:26:41;;;;;;;2.95;0.60;;;;;;;;;;5062113;28;20048;-72
2023/11/04 12:29:12;;;;;;;2.05;0.32;;;;;;;;;;5061958;28;20047;-72
2023/11/04 12:31:42;;;;;;;1.80;0.40;;;;;;;;;;5061853;28;20040;-72
2023/11/04 12:34:12;;;;;;;1.63;0.30;;;;;;;;;;5061925;28;20059;-73
2023/11/04 12:36:43;;;;;;;0.73;0.30;;;;;;;;;;5061550;28;20048;-74
2023/11/04 12:39:15;;;;;;;0.70;0.35;;;;;;;;;;5062341;28;20068;-73
2023/11/04 12:41:45;;;;;;;0.63;0.20;;;;;;;;;;5061458;28;20052;-74
2023/11/04 12:44:16;;;;;;;1.00;0.40;;;;;;;;;;5061463;28;20040;-72
2023/11/04 12:46:52;;;;;;;1.17;0.30;;;;;;;;;;5061736;28;20757;-74
2023/11/04 12:49:23;;;;;;;1.35;0.32;;;;;;;;;;5062175;28;20056;-72
2023/11/04 12:51:53;;;;;;;0.20;0.20;;;;;;;;;;5060503;28;20045;-71
2023/11/04 12:54:25;;;;;;;0.82;0.30;;;;;;;;;;5061741;28;20052;-73
2023/11/04 12:56:55;;;;;;;0.85;0.20;;;;;;;;;;5061064;28;20044;-74
2023/11/04 12:59:26;;;;;;;2.25;0.55;;;;;;;;;;5061201;28;20079;-71
2023/11/04 13:01:57;;;;;;;4.00;0.47;;;;;;;;;;5061696;28;20041;-74
2023/11/04 13:04:27;;;;;;;0.20;0.20;;;;;;;;;;5060566;28;20052;-71
2023/11/04 13:06:57;;;;;;;2.15;0.50;;;;;;;;;;5061021;28;20044;-78
2023/11/04 13:09:29;;;;;;;1.17;0.15;;;;;;;;;;5060930;28;20533;-72
2023/11/04 13:12:02;;;;;;;2.45;0.60;;;;;;;;;;5060848;28;20044;-72
2023/11/04 13:14:32;;;;;;;0.80;0.28;;;;;;;;;;5061700;28;20048;-74
2023/11/04 13:17:04;;;;;;;0.93;0.30;;;;;;;;;;5061262;28;20680;-77
2023/11/04 13:19:35;;;;;;;3.10;0.20;;;;;;;;;;5060347;28;20040;-74
2023/11/04 13:22:05;;;;;;;0.88;0.30;;;;;;;;;;5060446;28;20081;-72
2023/11/04 13:24:36;;;;;;;3.40;0.43;;;;;;;;;;5061000;28;20056;-73
2023/11/04 13:27:07;;;;;;;0.70;0.15;;;;;;;;;;5061080;28;20537;-74
2023/11/04 13:29:37;;;;;;;2.30;0.30;;;;;;;;;;5062148;28;20056;-73
2023/11/04 13:32:08;;;;;;;1.85;0.10;;;;;;;;;;5059049;28;20053;-73
2023/11/04 13:34:40;;;;;;;1.40;0.40;;;;;;;;;;5060872;28;20045;-74
2023/11/04 13:37:10;;;;;;;1.27;0.20;;;;;;;;;;5060719;28;20047;-75
2023/11/04 13:39:40;;;;;;;0.65;0.43;;;;;;;;;;5060772;28;20044;-73
2023/11/04 13:42:15;;;;;;;1.65;0.20;;;;;;;;;;5060297;28;20051;-79
2023/11/04 13:44:45;;;;;;;1.15;0.30;;;;;;;;;;5060250;28;20056;-72
2023/11/04 13:47:16;;;;;;;1.70;0.30;;;;;;;;;;5060593;28;20052;-75
2023/11/04 13:49:47;;;;;;;0.30;0.20;;;;;;;;;;5059255;28;20059;-74
2023/11/04 13:52:17;;;;;;;0.20;0.20;;;;;;;;;;5058873;28;20646;-71
2023/11/04 13:54:48;;;;;;;3.20;0.50;;;;;;;;;;5060233;28;20044;-72
2023/11/04 13:57:20;;;;;;;0.50;0.40;;;;;;;;;;5060203;28;20052;-74
2023/11/04 13:59:50;;;;;;;1.17;0.30;;;;;;;;;;5061022;28;20071;-75
2023/11/04 14:02:26;;;;;;;2.28;0.40;;;;;;;;;;5060521;28;20051;-73
2023/11/04 14:05:00;;;;;;;2.03;0.93;;;;;;;;;;5060569;28;20049;-75
2023/11/04 14:07:31;;;;;;;2.30;0.55;;;;;;;;;;5060708;28;20045;-77
2023/11/04 14:10:02;;;;;;;0.20;0.20;;;;;;;;;;5059981;28;20040;-72
2023/11/04 14:12:34;;;;;;;0.40;0.40;;;;;;;;;;5060545;28;20063;-71
2023/11/04 14:15:06;;;;;;;0.85;0.30;;;;;;;;;;5060030;28;20055;-72
2023/11/04 14:17:37;;;;;;;7.68;0.70;;;;;;;;;;5059440;28;20422;-73
2023/11/04 14:20:09;;;;;;;1.38;0.52;;;;;;;;;;5059650;28;20048;-74
2023/11/04 14:22:39;;;;;;;0.55;0.30;;;;;;;;;;5060046;28;20056;-73
2023/11/04 14:25:10;;;;;;;0.38;0.38;;;;;;;;;;5059585;28;20429;-73
2023/11/04 14:39:24;;;;;;;1.27;0.30;;;;;;;;;;5099269;27;20450;-74
2023/11/04 14:41:54;;;;;;;2.55;0.90;;;;;;;;;;5098362;28;20529;-81
2023/11/04 14:44:24;;;;;;;2.03;0.40;;;;;;;;;;5099001;28;20502;-75
2023/11/04 14:46:55;;;;;;;0.30;0.30;;;;;;;;;;5081023;28;20044;-73
2023/11/04 14:49:27;;;;;;;2.70;0.40;;;;;;;;;;5099428;28;20051;-75
2023/11/04 15:07:52;;;;;;;0.85;0.40;;;;;;;;;;5101314;27;20957;-71
2023/11/04 15:10:23;;;;;;;0.75;0.20;;;;;;;;;;5100440;28;20035;-76
2023/11/04 15:12:54;;;;;;;1.75;0.40;;;;;;;;;;5098869;28;20047;-72
2023/11/04 15:15:24;;;;;;;0.50;0.35;;;;;;;;;;5100094;28;20498;-71
2023/11/04 15:17:56;;;;;;;0.93;0.32;;;;;;;;;;5099961;28;20051;-71
2023/11/04 15:20:30;;;;;;;0.43;0.40;;;;;;;;;;5099471;28;20481;-75
2023/11/04 15:23:02;;;;;;;0.43;0.25;;;;;;;;;;5099242;28;20056;-72
2023/11/04 15:25:35;;;;;;;0.20;0.20;;;;;;;;;;5098409;28;20059;-71
2023/11/04 15:28:07;;;;;;;1.05;0.40;;;;;;;;;;5099155;28;20048;-71
2023/11/04 15:30:42;;;;;;;0.40;0.30;;;;;;;;;;5098944;28;20062;-75
2023/11/04 15:33:15;;;;;;;0.95;0.50;;;;;;;;;;5099468;28;20821;-73
2023/11/04 15:35:45;;;;;;;1.02;0.20;;;;;;;;;;5099492;28;20058;-71
2023/11/04 15:38:21;;;;;;;0.28;0.20;;;;;;;;;;5099126;28;20048;-71